Time;durP1;ratioP1;P1;durP2;ratioP2;P2;SDS_P1;SDS_P2;PMS_P1;PMS_P2;Temp;Humidity;BMP_temperature;BMP_pressure;BME280_temperature;BME280_humidity;BME280_pressure;Samples;Min_cycle;Max_cycle;Signal;HPM_P1;HPM_P2
2024/03/31 00:00:14;;;;;;;5.10;4.55;;;10.30;99.90;;;;;;4940360;29;20042;-87
2024/03/31 00:02:40;;;;;;;5.32;4.78;;;10.20;99.90;;;;;;4956680;29;20035;-88
2024/03/31 00:05:06;;;;;;;6.10;5.15;;;10.30;99.90;;;;;;4955477;29;20375;-88
2024/03/31 00:07:33;;;;;;;6.00;4.90;;;10.30;99.90;;;;;;4939355;29;20058;-87
2024/03/31 00:09:58;;;;;;;5.75;5.03;;;10.30;99.90;;;;;;4939731;29;20031;-87
2024/03/31 00:12:24;;;;;;;6.57;4.78;;;10.30;99.90;;;;;;4964513;28;20435;-88
2024/03/31 00:14:50;;;;;;;6.75;5.30;;;10.30;99.90;;;;;;4907982;29;20031;-86
2024/03/31 00:17:16;;;;;;;5.97;4.82;;;10.30;99.90;;;;;;4939224;29;20031;-88
2024/03/31 00:19:41;;;;;;;5.38;4.88;;;10.30;99.90;;;;;;4956798;29;20042;-86
2024/03/31 00:22:07;;;;;;;5.07;4.57;;;10.30;99.90;;;;;;4939862;29;20062;-88
2024/03/31 00:24:33;;;;;;;5.95;5.18;;;10.40;99.90;;;;;;4950841;28;20090;-87
2024/03/31 00:26:58;;;;;;;7.72;5.93;;;10.30;99.90;;;;;;4962676;28;20065;-87
2024/03/31 00:29:24;;;;;;;6.63;5.05;;;10.30;99.90;;;;;;4951108;29;20058;-87
2024/03/31 00:31:50;;;;;;;10.45;5.93;;;10.30;99.90;;;;;;4924717;29;20148;-89
2024/03/31 00:34:16;;;;;;;7.07;5.20;;;10.30;99.90;;;;;;4939086;29;20058;-88
2024/03/31 00:36:44;;;;;;;7.57;5.95;;;10.40;99.90;;;;;;4943643;28;20102;-88
2024/03/31 00:39:09;;;;;;;7.13;5.88;;;10.40;99.90;;;;;;4917357;29;20047;-88
2024/03/31 00:41:35;;;;;;;8.07;6.25;;;10.30;99.90;;;;;;4942632;29;20031;-91
2024/03/31 00:44:05;;;;;;;9.43;7.30;;;10.30;99.90;;;;;;4959913;29;20020;-87
2024/03/31 00:46:34;;;;;;;9.13;7.40;;;10.20;99.90;;;;;;4927290;29;20114;-87
2024/03/31 00:48:59;;;;;;;8.00;6.75;;;10.20;99.90;;;;;;4911487;29;20110;-87
2024/03/31 00:51:25;;;;;;;10.13;7.85;;;10.20;99.90;;;;;;4938437;29;20083;-85
2024/03/31 00:53:51;;;;;;;9.10;7.28;;;10.30;99.90;;;;;;4934713;29;20088;-87
2024/03/31 00:56:16;;;;;;;9.18;7.43;;;10.30;99.90;;;;;;4943066;29;20468;-89
2024/03/31 00:58:42;;;;;;;8.70;7.35;;;10.30;99.90;;;;;;4943289;29;20047;-88
2024/03/31 01:01:09;;;;;;;10.57;7.78;;;10.40;99.90;;;;;;4943351;29;20106;-88
2024/03/31 01:03:35;;;;;;;9.23;7.55;;;10.40;99.90;;;;;;4963388;28;20118;-87
2024/03/31 01:06:16;;;;;;;10.23;8.13;;;10.30;99.90;;;;;;4917406;28;20062;-85
2024/03/31 01:08:46;;;;;;;10.38;8.20;;;10.40;99.90;;;;;;4966756;28;20055;-85
2024/03/31 01:11:12;;;;;;;11.17;8.07;;;10.40;99.90;;;;;;4957797;28;20026;-86
2024/03/31 01:13:39;;;;;;;10.18;8.70;;;10.40;99.90;;;;;;4985932;28;20122;-87
2024/03/31 01:16:05;;;;;;;12.68;9.55;;;10.40;99.90;;;;;;4989734;28;20027;-88
2024/03/31 01:18:34;;;;;;;12.68;10.10;;;10.40;99.90;;;;;;4951259;29;20035;-88
2024/03/31 01:21:03;;;;;;;11.73;8.77;;;10.40;99.90;;;;;;4958261;29;20028;-85
2024/03/31 01:23:51;;;;;;;12.45;9.98;;;10.40;99.90;;;;;;4941348;28;20732;-89
2024/03/31 01:26:20;;;;;;;12.23;9.30;;;10.40;99.90;;;;;;4947779;29;20435;-86
2024/03/31 01:28:45;;;;;;;11.05;8.95;;;10.30;99.90;;;;;;4941932;29;20058;-87
2024/03/31 01:31:20;;;;;;;9.75;8.38;;;10.30;99.90;;;;;;4959795;29;20027;-88
2024/03/31 01:33:46;;;;;;;10.43;8.43;;;10.30;99.90;;;;;;4945533;29;20053;-89
2024/03/31 01:36:13;;;;;;;10.98;8.77;;;10.30;99.90;;;;;;4942930;28;20113;-86
2024/03/31 01:38:38;;;;;;;10.60;8.48;;;10.30;99.90;;;;;;4950883;29;20039;-86
2024/03/31 01:41:04;;;;;;;12.10;9.68;;;10.30;99.90;;;;;;4943133;29;20038;-87
2024/03/31 01:43:33;;;;;;;10.05;8.48;;;10.20;99.90;;;;;;4943260;29;20027;-88
2024/03/31 01:45:58;;;;;;;10.80;8.80;;;10.30;99.90;;;;;;4943067;29;20123;-87
2024/03/31 01:48:24;;;;;;;10.70;8.30;;;10.30;99.90;;;;;;4981859;28;20034;-86
2024/03/31 01:50:50;;;;;;;12.35;9.65;;;10.30;99.90;;;;;;4962565;29;20094;-87
2024/03/31 01:53:15;;;;;;;11.20;9.23;;;10.30;99.90;;;;;;4974006;29;20031;-88
2024/03/31 01:55:41;;;;;;;12.63;9.55;;;10.20;99.90;;;;;;4935005;29;20033;-87
2024/03/31 01:58:07;;;;;;;11.45;9.38;;;10.20;99.90;;;;;;4943387;29;20047;-88
2024/03/31 02:00:32;;;;;;;10.90;8.73;;;10.20;99.90;;;;;;4930828;28;20031;-88
2024/03/31 02:02:59;;;;;;;11.35;9.48;;;10.20;99.90;;;;;;4948401;29;20043;-87
2024/03/31 02:05:25;;;;;;;11.23;8.68;;;10.20;99.90;;;;;;4963870;29;20086;-87
2024/03/31 02:07:51;;;;;;;10.77;8.52;;;10.10;99.90;;;;;;4943458;29;20023;-87
2024/03/31 02:10:17;;;;;;;10.80;8.27;;;10.10;99.90;;;;;;4961119;29;20030;-88
2024/03/31 02:12:43;;;;;;;10.98;8.43;;;10.10;99.90;;;;;;4944597;29;20031;-86
2024/03/31 02:15:08;;;;;;;9.95;8.18;;;10.10;99.90;;;;;;4944463;29;20487;-88
2024/03/31 02:17:34;;;;;;;9.48;7.78;;;10.10;99.90;;;;;;4951589;28;20467;-86
2024/03/31 02:20:00;;;;;;;9.80;7.72;;;10.10;99.90;;;;;;4957780;29;20122;-86
2024/03/31 02:22:28;;;;;;;9.40;7.68;;;10.10;99.90;;;;;;4928142;29;20028;-88
2024/03/31 02:24:54;;;;;;;8.70;7.28;;;10.10;99.90;;;;;;4942478;29;20027;-88
2024/03/31 02:27:22;;;;;;;9.23;7.43;;;10.10;99.90;;;;;;4940783;29;20098;-87
2024/03/31 02:29:48;;;;;;;7.97;6.53;;;10.00;99.90;;;;;;4967560;28;20055;-87
2024/03/31 02:32:14;;;;;;;8.77;7.18;;;10.10;99.90;;;;;;4930648;28;20032;-87
2024/03/31 02:34:39;;;;;;;8.73;6.85;;;10.00;99.90;;;;;;4941719;29;20055;-86
2024/03/31 02:37:05;;;;;;;8.20;7.22;;;10.00;99.90;;;;;;4948560;29;20019;-88
2024/03/31 02:39:33;;;;;;;8.63;6.65;;;10.00;99.90;;;;;;4953155;28;20034;-86
2024/03/31 02:41:59;;;;;;;9.15;6.68;;;10.00;99.90;;;;;;4964208;28;20031;-88
2024/03/31 02:44:28;;;;;;;7.18;6.43;;;10.00;99.90;;;;;;4964700;28;20075;-87
2024/03/31 02:46:53;;;;;;;6.90;5.90;;;10.00;99.90;;;;;;4985125;28;20030;-87
2024/03/31 02:49:19;;;;;;;8.13;6.45;;;10.00;99.90;;;;;;4922866;29;20036;-86
2024/03/31 02:51:45;;;;;;;7.15;5.65;;;10.00;99.90;;;;;;4921568;29;20024;-89
2024/03/31 02:54:10;;;;;;;6.95;5.93;;;10.00;99.90;;;;;;4934212;29;20051;-86
2024/03/31 02:56:36;;;;;;;7.53;5.85;;;10.00;99.90;;;;;;4956704;29;20051;-87
2024/03/31 02:59:02;;;;;;;8.13;6.25;;;10.00;99.90;;;;;;4941105;29;20031;-88
2024/03/31 03:01:28;;;;;;;7.97;6.45;;;10.00;99.90;;;;;;4924681;29;20028;-87
2024/03/31 03:03:53;;;;;;;7.70;6.72;;;10.10;99.90;;;;;;4959076;28;20105;-88
2024/03/31 03:06:19;;;;;;;9.57;7.65;;;10.10;99.90;;;;;;4959598;29;20036;-87
2024/03/31 03:08:45;;;;;;;8.73;7.72;;;10.10;99.90;;;;;;4961716;29;20031;-86
2024/03/31 03:11:10;;;;;;;10.15;7.95;;;10.00;99.90;;;;;;4958060;29;20031;-86
2024/03/31 03:13:36;;;;;;;9.98;8.10;;;10.00;99.90;;;;;;4940897;29;20117;-86
2024/03/31 03:16:05;;;;;;;10.70;8.57;;;9.90;99.90;;;;;;4940667;29;20031;-88
2024/03/31 03:18:34;;;;;;;11.23;9.27;;;9.80;99.90;;;;;;4924832;29;20039;-86
2024/03/31 03:20:59;;;;;;;11.25;8.18;;;9.80;99.90;;;;;;4933375;29;20026;-85
2024/03/31 03:23:26;;;;;;;12.38;9.38;;;9.70;99.90;;;;;;4931239;29;20035;-86
2024/03/31 03:25:56;;;;;;;11.48;9.40;;;9.70;99.90;;;;;;4937220;29;20031;-87
2024/03/31 03:28:22;;;;;;;11.57;9.13;;;9.70;99.90;;;;;;4934704;29;20066;-89
2024/03/31 03:30:48;;;;;;;11.82;9.60;;;9.70;99.90;;;;;;4937021;29;20020;-87
2024/03/31 03:33:14;;;;;;;11.77;9.77;;;9.70;99.90;;;;;;4937144;29;20464;-87
2024/03/31 03:35:40;;;;;;;10.82;9.00;;;9.70;99.90;;;;;;4950092;29;20027;-86
2024/03/31 03:38:06;;;;;;;11.85;9.05;;;9.70;99.90;;;;;;4935456;28;20130;-87
2024/03/31 03:40:34;;;;;;;10.25;7.88;;;9.70;99.90;;;;;;4931373;29;20365;-86
2024/03/31 03:43:00;;;;;;;10.30;8.60;;;9.60;99.90;;;;;;4936627;29;20028;-86
2024/03/31 03:45:25;;;;;;;11.73;10.00;;;9.60;99.90;;;;;;4923027;29;20118;-87
2024/03/31 03:47:51;;;;;;;10.35;8.98;;;9.60;99.90;;;;;;4908315;29;20027;-88
2024/03/31 03:50:16;;;;;;;10.70;8.90;;;9.50;99.90;;;;;;4924203;29;20083;-87
2024/03/31 03:52:42;;;;;;;11.25;9.77;;;9.50;99.90;;;;;;4939931;29;20484;-89
2024/03/31 03:55:08;;;;;;;12.55;9.50;;;9.50;99.90;;;;;;4949899;29;20086;-87
2024/03/31 03:57:36;;;;;;;10.95;9.68;;;9.50;99.90;;;;;;4924445;28;20380;-86
2024/03/31 04:00:04;;;;;;;10.95;9.30;;;9.40;99.90;;;;;;4939809;29;20456;-87
2024/03/31 04:02:29;;;;;;;12.05;9.50;;;9.40;99.90;;;;;;4957011;29;20055;-87
2024/03/31 04:04:55;;;;;;;9.77;8.40;;;9.40;99.90;;;;;;4939844;29;20039;-86
2024/03/31 04:07:20;;;;;;;10.35;8.95;;;9.40;99.90;;;;;;4947362;29;20019;-87
2024/03/31 04:09:46;;;;;;;10.50;8.95;;;9.30;99.90;;;;;;4962588;28;20008;-87
2024/03/31 04:12:13;;;;;;;9.77;8.10;;;9.30;99.90;;;;;;4992063;28;20026;-85
2024/03/31 04:14:39;;;;;;;9.05;7.60;;;9.30;99.90;;;;;;4979949;28;20075;-86
2024/03/31 04:17:05;;;;;;;9.00;8.02;;;9.30;99.90;;;;;;4962424;29;20113;-88
2024/03/31 04:19:31;;;;;;;8.23;7.00;;;9.20;99.90;;;;;;4939297;29;20464;-87
2024/03/31 04:21:56;;;;;;;8.38;6.72;;;9.20;99.90;;;;;;4938697;29;20499;-87
2024/03/31 04:24:22;;;;;;;8.60;7.28;;;9.20;99.90;;;;;;4956420;29;20483;-87
2024/03/31 04:26:48;;;;;;;8.10;7.22;;;9.20;99.90;;;;;;4938910;28;20459;-85
2024/03/31 04:29:13;;;;;;;8.05;7.07;;;9.20;99.90;;;;;;4923091;29;20416;-87
2024/03/31 04:31:53;;;;;;;8.15;7.35;;;9.20;99.90;;;;;;4955146;29;20047;-86
2024/03/31 04:34:22;;;;;;;9.10;7.90;;;9.20;99.90;;;;;;4956332;29;20384;-88
2024/03/31 04:36:51;;;;;;;9.20;7.45;;;9.10;99.90;;;;;;4956326;29;20074;-87
2024/03/31 04:39:16;;;;;;;9.32;7.38;;;9.10;99.90;;;;;;4939265;28;20083;-87
2024/03/31 04:41:43;;;;;;;8.45;7.55;;;9.10;99.90;;;;;;4941940;28;20031;-87
2024/03/31 04:44:08;;;;;;;8.85;7.57;;;9.10;99.90;;;;;;4940047;29;20035;-87
2024/03/31 04:46:34;;;;;;;8.25;7.40;;;9.10;99.90;;;;;;4937797;29;20555;-86
2024/03/31 04:49:00;;;;;;;7.38;6.57;;;9.10;99.90;;;;;;4929842;29;20039;-87
2024/03/31 04:51:29;;;;;;;8.43;7.57;;;9.10;99.90;;;;;;4956948;29;20023;-85
2024/03/31 04:53:54;;;;;;;8.95;8.02;;;9.10;99.90;;;;;;4972908;29;20020;-87
2024/03/31 04:56:20;;;;;;;8.80;7.47;;;9.10;99.90;;;;;;4984565;28;20038;-86
2024/03/31 04:58:46;;;;;;;9.00;7.82;;;9.10;99.90;;;;;;4931372;29;20391;-86
2024/03/31 05:01:12;;;;;;;8.57;7.47;;;9.10;99.90;;;;;;4955403;28;20031;-87
2024/03/31 05:03:38;;;;;;;9.07;7.40;;;9.10;99.90;;;;;;4939385;29;20042;-87
2024/03/31 05:06:03;;;;;;;7.88;7.07;;;9.10;99.90;;;;;;4939646;29;20046;-87
2024/03/31 05:08:29;;;;;;;8.32;7.00;;;9.10;99.90;;;;;;4955314;28;20047;-86
2024/03/31 05:10:59;;;;;;;8.35;7.13;;;9.20;99.90;;;;;;4940983;29;20117;-86
2024/03/31 05:13:29;;;;;;;9.35;7.55;;;9.20;99.90;;;;;;4955213;29;20044;-88
2024/03/31 05:16:08;;;;;;;7.68;6.78;;;9.20;99.90;;;;;;4925105;29;20027;-87
2024/03/31 05:18:34;;;;;;;8.15;7.35;;;9.20;99.90;;;;;;4943273;29;20407;-87
2024/03/31 05:21:02;;;;;;;8.75;7.85;;;9.20;99.90;;;;;;4959708;29;20027;-86
2024/03/31 05:23:28;;;;;;;9.15;7.80;;;9.20;99.90;;;;;;4939576;29;20042;-87
2024/03/31 05:25:55;;;;;;;10.73;8.63;;;9.30;99.90;;;;;;4923695;29;20031;-88
2024/03/31 05:28:22;;;;;;;10.07;8.50;;;9.20;99.90;;;;;;4944554;29;20091;-88
2024/03/31 05:30:48;;;;;;;7.80;7.00;;;9.20;99.90;;;;;;4938564;29;20435;-88
2024/03/31 05:33:14;;;;;;;9.25;8.10;;;9.30;99.90;;;;;;4950497;28;20024;-89
2024/03/31 05:35:44;;;;;;;9.68;8.68;;;9.30;99.90;;;;;;4947950;29;20035;-88
2024/03/31 05:38:10;;;;;;;9.88;8.88;;;9.30;99.90;;;;;;4962073;28;20043;-88
2024/03/31 05:40:41;;;;;;;9.70;8.48;;;9.20;99.90;;;;;;4963000;28;20011;-86
2024/03/31 05:43:09;;;;;;;9.48;8.48;;;9.20;99.90;;;;;;4965743;28;20038;-88
2024/03/31 05:45:37;;;;;;;10.30;8.77;;;9.20;99.90;;;;;;4947005;29;20031;-88
2024/03/31 05:48:07;;;;;;;10.23;9.13;;;9.30;99.90;;;;;;4953820;28;20031;-87
2024/03/31 05:50:33;;;;;;;11.93;9.97;;;9.20;99.90;;;;;;4940091;29;20483;-88
2024/03/31 05:52:59;;;;;;;11.32;9.80;;;9.20;99.90;;;;;;4938807;29;20019;-89
2024/03/31 05:55:25;;;;;;;10.45;9.35;;;9.20;99.90;;;;;;4939799;29;20034;-89
2024/03/31 05:57:51;;;;;;;10.18;9.10;;;9.20;99.90;;;;;;4939174;29;20075;-88
2024/03/31 06:00:16;;;;;;;9.90;8.70;;;9.20;99.90;;;;;;4942104;29;20031;-87
2024/03/31 06:02:42;;;;;;;10.98;9.88;;;9.20;99.90;;;;;;4954702;29;20023;-88
2024/03/31 06:05:08;;;;;;;11.82;9.65;;;9.20;99.90;;;;;;4923003;29;20070;-88
2024/03/31 06:07:34;;;;;;;11.10;9.95;;;9.20;99.90;;;;;;4926485;29;20062;-89
2024/03/31 06:10:00;;;;;;;11.00;9.43;;;9.20;99.90;;;;;;4938885;29;20031;-88
2024/03/31 06:12:26;;;;;;;11.13;9.90;;;9.30;99.90;;;;;;4937839;29;20044;-89
2024/03/31 06:14:54;;;;;;;10.45;9.35;;;9.30;99.90;;;;;;4938332;29;20357;-88
2024/03/31 06:17:20;;;;;;;10.95;9.77;;;9.30;99.90;;;;;;4952201;29;20086;-87
2024/03/31 06:19:45;;;;;;;12.27;10.75;;;9.40;99.90;;;;;;4954554;29;20039;-88
2024/03/31 06:22:11;;;;;;;11.32;10.13;;;9.40;99.90;;;;;;4936957;29;20040;-88
2024/03/31 06:24:37;;;;;;;13.63;12.13;;;9.40;99.90;;;;;;4958214;28;20036;-87
2024/03/31 06:27:03;;;;;;;13.63;11.77;;;9.40;99.90;;;;;;4958238;29;20182;-87
2024/03/31 06:29:28;;;;;;;14.98;12.35;;;9.30;99.90;;;;;;4924799;29;20061;-92
2024/03/31 06:31:57;;;;;;;13.18;11.73;;;9.30;99.90;;;;;;4948864;29;20055;-91
2024/03/31 06:34:49;;;;;;;13.07;11.73;;;9.40;99.90;;;;;;4989296;23;20030;-94
2024/03/31 06:37:17;;;;;;;14.02;12.52;;;9.40;99.90;;;;;;4950177;28;20090;-95
2024/03/31 06:39:46;;;;;;;12.77;11.07;;;9.40;99.90;;;;;;4953064;28;20047;-89
2024/03/31 06:42:14;;;;;;;12.85;11.35;;;9.40;99.90;;;;;;4944318;28;20023;-94
2024/03/31 06:44:40;;;;;;;12.80;11.23;;;9.40;99.90;;;;;;4947427;29;20054;-92
2024/03/31 06:47:25;;;;;;;12.95;11.45;;;9.50;99.90;;;;;;4951132;29;20023;-93
2024/03/31 06:52:43;;;;;;;13.00;11.40;;;9.60;99.90;;;;;;4960445;28;20090;-93
2024/03/31 06:55:17;;;;;;;14.60;11.85;;;9.70;99.90;;;;;;4978885;23;20054;-93
2024/03/31 06:57:42;;;;;;;15.52;13.18;;;9.70;99.90;;;;;;4945612;29;20035;-93
2024/03/31 07:00:11;;;;;;;13.88;12.30;;;9.70;99.90;;;;;;4946576;29;20043;-94
2024/03/31 07:02:42;;;;;;;15.93;13.63;;;9.70;99.90;;;;;;4948708;29;20016;-92
2024/03/31 07:05:10;;;;;;;15.82;13.45;;;9.70;99.90;;;;;;5097711;23;20123;-92
2024/03/31 07:10:19;;;;;;;15.15;13.07;;;9.80;99.90;;;;;;3686015;26;20028;-89
2024/03/31 07:13:18;;;;;;;14.02;12.52;;;9.80;99.90;;;;;;5392595;23;20111;-93
2024/03/31 07:15:47;;;;;;;15.32;13.10;;;9.90;99.90;;;;;;4949358;29;20039;-93
2024/03/31 07:18:12;;;;;;;16.80;13.40;;;9.90;99.90;;;;;;4991261;23;20052;-92
2024/03/31 07:20:38;;;;;;;16.83;14.80;;;10.00;99.90;;;;;;4953569;29;20035;-93
2024/03/31 07:23:15;;;;;;;17.23;14.07;;;10.00;99.90;;;;;;4939411;29;20119;-91
2024/03/31 07:25:59;;;;;;;;;;;;;;;;;;;;;
2024/03/31 07:31:27;;;;;;;16.75;14.23;;;10.00;99.90;;;;;;5196093;23;20227;-92
2024/03/31 07:33:53;;;;;;;16.23;13.93;;;10.00;99.90;;;;;;5002600;23;20049;-94
2024/03/31 07:36:33;;;;;;;15.02;12.93;;;10.00;99.90;;;;;;4977514;28;20023;-94
2024/03/31 07:39:01;;;;;;;16.48;13.73;;;10.10;99.90;;;;;;4952491;28;20023;-94
2024/03/31 07:41:30;;;;;;;16.60;13.48;;;10.10;99.90;;;;;;4989598;28;20027;-90
2024/03/31 07:44:21;;;;;;;15.77;13.20;;;10.30;99.90;;;;;;4971505;28;20477;-93
2024/03/31 07:46:51;;;;;;;;;;;10.30;99.90;;;;;;5068766;23;20110;-95
2024/03/31 07:49:24;;;;;;;18.52;16.45;;;10.40;99.90;;;;;;4971902;29;19938;-93
2024/03/31 07:51:50;;;;;;;18.30;15.00;;;10.40;99.90;;;;;;5043948;23;20065;-93
2024/03/31 07:54:21;;;;;;;19.33;16.42;;;10.40;99.90;;;;;;4984103;23;20082;-88
2024/03/31 07:57:07;;;;;;;;;;;;;;;;;;;;;
2024/03/31 07:59:47;;;;;;;19.40;15.77;;;10.50;99.90;;;;;;5015551;23;20084;-92
2024/03/31 08:05:27;;;;;;;18.92;16.92;;;10.50;99.90;;;;;;4933312;29;20071;-90
2024/03/31 08:07:53;;;;;;;19.35;15.45;;;10.50;99.90;;;;;;4930836;29;20035;-93
2024/03/31 08:10:43;;;;;;;19.27;16.77;;;10.50;99.90;;;;;;4920900;29;20025;-94
2024/03/31 08:13:36;;;;;;;21.10;17.33;;;10.50;99.90;;;;;;4912808;29;20381;-93
2024/03/31 08:16:14;;;;;;;18.30;16.33;;;10.60;99.90;;;;;;4950235;23;20060;-95
2024/03/31 08:19:09;;;;;;;19.48;14.85;;;10.70;99.90;;;;;;4933433;28;20025;-94
2024/03/31 08:24:44;;;;;;;15.55;13.80;;;10.90;99.90;;;;;;5031066;23;20070;-94
2024/03/31 08:27:39;;;;;;;17.15;14.55;;;11.00;99.90;;;;;;4955375;28;20027;-92
2024/03/31 08:30:39;;;;;;;18.08;14.55;;;11.10;99.90;;;;;;5004213;23;20059;-92
2024/03/31 08:35:38;;;;;;;16.33;14.03;;;11.30;99.90;;;;;;5075448;23;20059;-89
2024/03/31 08:40:53;;;;;;;18.90;14.13;;;11.40;99.90;;;;;;4887633;27;20071;-93
2024/03/31 08:43:22;;;;;;;16.27;13.05;;;11.50;99.90;;;;;;4935880;29;20037;-93
2024/03/31 08:45:49;;;;;;;13.93;11.73;;;11.60;99.90;;;;;;4933852;29;20092;-93
2024/03/31 08:48:20;;;;;;;20.02;15.43;;;11.70;99.90;;;;;;4931259;29;20104;-92
2024/03/31 08:50:49;;;;;;;18.17;14.25;;;11.80;99.90;;;;;;4916686;29;20076;-94
2024/03/31 08:53:22;;;;;;;16.92;13.23;;;11.90;99.90;;;;;;4916629;29;20009;-95
2024/03/31 08:55:48;;;;;;;17.73;14.02;;;11.90;99.90;;;;;;5168123;23;20048;-93
2024/03/31 08:58:17;;;;;;;18.30;12.73;;;12.00;99.90;;;;;;4961987;28;20038;-94
2024/03/31 09:00:46;;;;;;;15.35;11.63;;;12.10;99.90;;;;;;4919281;29;20031;-92
2024/03/31 09:03:14;;;;;;;15.93;11.40;;;12.20;99.90;;;;;;4916258;29;20021;-91
2024/03/31 09:05:40;;;;;;;19.15;12.90;;;12.40;99.90;;;;;;4907478;29;20128;-94
2024/03/31 09:08:16;;;;;;;17.00;13.15;;;12.40;99.90;;;;;;4919135;29;20064;-93
2024/03/31 09:10:50;;;;;;;20.17;13.82;;;12.40;99.90;;;;;;4921596;29;20061;-94
2024/03/31 09:16:01;;;;;;;19.30;12.15;;;12.40;99.90;;;;;;4995609;23;21203;-92
2024/03/31 09:18:37;;;;;;;15.55;12.32;;;12.50;99.90;;;;;;4939152;28;20044;-94
2024/03/31 09:21:18;;;;;;;17.60;12.43;;;12.50;99.90;;;;;;4922884;29;20020;-94
2024/03/31 09:23:56;;;;;;;13.38;10.88;;;12.60;99.90;;;;;;4950835;28;20032;-94
2024/03/31 09:26:32;;;;;;;;;;;;;;;;;;;;;
2024/03/31 09:29:06;;;;;;;15.40;10.85;;;12.80;99.90;;;;;;4943147;29;20111;-93
2024/03/31 09:31:32;;;;;;;14.13;11.25;;;12.80;99.90;;;;;;4913691;29;20043;-94
2024/03/31 09:34:22;;;;;;;;;;;;;;;;;;;;;
2024/03/31 09:39:41;;;;;;;15.82;12.68;;;13.00;99.90;;;;;;4929296;29;20103;-95
2024/03/31 09:42:18;;;;;;;;;;;;;;;;;;;;;
2024/03/31 09:44:47;;;;;;;18.45;12.60;;;13.20;99.90;;;;;;4932699;29;20092;-93
2024/03/31 09:47:28;;;;;;;13.57;10.40;;;13.20;99.90;;;;;;4921228;29;20032;-94
2024/03/31 09:50:37;;;;;;;;;;;;;;;;;;;;;
2024/03/31 09:53:04;;;;;;;16.42;12.57;;;13.50;99.90;;;;;;5084393;23;22260;-92
2024/03/31 09:55:47;;;;;;;16.25;12.90;;;13.60;99.90;;;;;;4916690;28;20028;-94
2024/03/31 09:58:21;;;;;;;17.48;12.60;;;13.60;99.90;;;;;;4932583;29;20036;-93
2024/03/31 10:00:51;;;;;;;18.50;13.00;;;13.60;99.90;;;;;;4951855;29;20087;-94
2024/03/31 10:03:25;;;;;;;14.73;11.30;;;13.70;99.90;;;;;;4931091;29;20047;-90
2024/03/31 10:08:32;;;;;;;;;;;;;;;;;;;;;
2024/03/31 10:16:23;;;;;;;12.23;9.10;;;14.10;99.90;;;;;;5291751;22;20417;-91
2024/03/31 10:19:09;;;;;;;13.75;9.68;;;14.40;99.90;;;;;;5123571;28;20032;-94
2024/03/31 10:21:48;;;;;;;11.32;8.75;;;14.40;99.90;;;;;;5128339;27;20102;-95
2024/03/31 10:27:20;;;;;;;15.65;9.50;;;14.50;99.90;;;;;;5091102;23;20053;-93
2024/03/31 10:29:54;;;;;;;11.95;7.53;;;14.50;99.90;;;;;;5058799;27;20040;-95
2024/03/31 10:32:29;;;;;;;11.98;7.80;;;14.60;99.90;;;;;;5071671;28;20024;-93
2024/03/31 10:34:54;;;;;;;12.85;8.07;;;14.60;99.90;;;;;;5060466;28;20044;-95
2024/03/31 10:37:35;;;;;;;15.52;8.77;;;14.60;99.90;;;;;;5067073;28;20032;-91
2024/03/31 10:40:26;;;;;;;15.60;8.40;;;14.70;99.90;;;;;;5073161;28;20096;-90
2024/03/31 10:54:38;;;;;;;7.55;4.80;;;15.10;99.90;;;;;;4973662;22;20045;-90
2024/03/31 10:57:15;;;;;;;12.65;6.03;;;15.30;99.90;;;;;;5058737;28;20045;-85
2024/03/31 10:59:49;;;;;;;14.27;6.03;;;15.40;99.90;;;;;;5041709;28;20196;-88
2024/03/31 11:02:33;;;;;;;11.05;5.35;;;15.50;99.90;;;;;;5002387;28;20056;-93
2024/03/31 11:05:11;;;;;;;10.52;4.82;;;15.60;99.90;;;;;;5026334;28;20132;-93
2024/03/31 11:07:46;;;;;;;8.13;4.70;;;15.70;99.90;;;;;;5042274;28;20029;-92
2024/03/31 11:10:13;;;;;;;7.95;4.68;;;15.70;99.90;;;;;;5028243;28;20034;-94
2024/03/31 11:12:46;;;;;;;8.63;4.25;;;15.80;99.90;;;;;;5050912;28;20025;-93
2024/03/31 11:15:14;;;;;;;14.93;5.35;;;15.90;99.90;;;;;;5029366;28;20038;-91
2024/03/31 11:17:45;;;;;;;10.05;4.60;;;16.00;99.90;;;;;;5024958;28;20474;-93
2024/03/31 11:20:13;;;;;;;11.45;4.93;;;16.10;99.90;;;;;;5027052;28;20496;-93
2024/03/31 11:22:39;;;;;;;10.13;4.70;;;16.20;99.90;;;;;;5014548;28;20086;-91
2024/03/31 11:25:11;;;;;;;10.57;5.00;;;16.30;99.90;;;;;;5016970;28;20022;-92
2024/03/31 11:27:38;;;;;;;13.35;5.32;;;16.30;99.90;;;;;;5001620;28;20535;-92
2024/03/31 11:30:27;;;;;;;6.43;4.18;;;16.30;99.90;;;;;;5024326;28;20029;-93
2024/03/31 11:32:54;;;;;;;7.60;4.68;;;16.40;99.90;;;;;;5026809;28;20032;-91
2024/03/31 11:35:21;;;;;;;8.05;4.20;;;16.40;99.90;;;;;;5019009;28;20128;-94
2024/03/31 11:37:52;;;;;;;8.55;4.03;;;16.50;99.90;;;;;;5016910;28;20033;-94
2024/03/31 11:40:18;;;;;;;8.82;4.20;;;16.60;99.90;;;;;;5063241;23;20054;-91
2024/03/31 11:42:44;;;;;;;8.30;3.60;;;16.60;99.90;;;;;;5009760;28;20060;-94
2024/03/31 11:45:09;;;;;;;7.88;3.80;;;16.60;99.90;;;;;;5056931;23;20104;-95
2024/03/31 11:47:44;;;;;;;6.78;3.17;;;16.60;99.90;;;;;;5006403;28;20062;-91
2024/03/31 11:50:09;;;;;;;10.73;3.83;;;16.60;99.90;;;;;;5012556;28;20011;-89
2024/03/31 11:52:35;;;;;;;9.55;3.72;;;16.60;99.90;;;;;;5009559;28;20009;-89
2024/03/31 11:55:01;;;;;;;6.97;3.67;;;16.60;99.90;;;;;;5004064;28;20045;-89
2024/03/31 11:57:37;;;;;;;6.97;3.13;;;16.60;99.90;;;;;;5004641;28;20014;-87
2024/03/31 12:00:04;;;;;;;8.35;3.75;;;16.70;99.90;;;;;;5011531;28;20038;-93
2024/03/31 12:02:32;;;;;;;8.23;4.07;;;16.70;99.90;;;;;;5016829;28;20037;-95
2024/03/31 12:05:13;;;;;;;7.30;2.85;;;16.60;99.90;;;;;;5010456;28;20475;-93
2024/03/31 12:08:01;;;;;;;;;;;16.60;99.90;;;;;;5016711;28;20029;-91
2024/03/31 12:10:31;;;;;;;8.93;3.17;;;16.60;99.90;;;;;;4997753;28;19913;-94
2024/03/31 12:12:57;;;;;;;6.55;3.00;;;16.50;99.90;;;;;;5001688;28;20026;-91
2024/03/31 12:15:24;;;;;;;10.45;2.90;;;16.60;99.90;;;;;;4996865;28;20029;-90
2024/03/31 12:17:59;;;;;;;8.05;2.70;;;16.70;99.90;;;;;;4997233;28;20045;-91
2024/03/31 12:20:28;;;;;;;7.72;2.97;;;16.70;99.90;;;;;;4999307;28;20073;-96
2024/03/31 12:22:56;;;;;;;9.48;3.40;;;16.80;99.90;;;;;;5008003;28;20488;-91
2024/03/31 12:25:23;;;;;;;8.15;3.47;;;16.80;99.90;;;;;;5022694;28;20465;-90
2024/03/31 12:27:57;;;;;;;6.57;2.83;;;16.90;99.90;;;;;;5006018;28;20060;-91
2024/03/31 12:30:26;;;;;;;10.55;3.05;;;16.90;99.90;;;;;;4982955;28;20026;-93
2024/03/31 12:32:52;;;;;;;7.15;2.47;;;16.90;99.90;;;;;;5012479;28;20121;-95
2024/03/31 12:35:31;;;;;;;;;;;;;;;;;;;;;
2024/03/31 12:42:33;;;;;;;9.35;2.70;;;17.00;99.90;;;;;;5001278;28;20057;-92
2024/03/31 12:45:28;;;;;;;;;;;;;;;;;;;;;
2024/03/31 12:55:07;;;;;;;12.23;3.25;;;17.00;99.90;;;;;;4995199;28;20394;-91
2024/03/31 13:00:58;;;;;;;8.18;2.13;;;17.00;99.90;;;;;;5002732;28;20044;-90
2024/03/31 13:03:39;;;;;;;6.78;2.42;;;17.10;99.90;;;;;;5000496;28;20105;-89
2024/03/31 13:06:54;;;;;;;7.68;2.45;;;17.10;99.90;;;;;;5003962;28;20032;-89
2024/03/31 13:09:18;;;;;;;6.25;2.28;;;17.10;99.90;;;;;;5032288;28;20026;-86
2024/03/31 13:11:44;;;;;;;6.93;2.67;;;17.20;99.90;;;;;;4999012;28;20097;-87
2024/03/31 13:14:12;;;;;;;9.77;2.67;;;17.30;99.90;;;;;;4983162;28;20112;-88
2024/03/31 13:16:40;;;;;;;9.15;2.88;;;17.30;99.90;;;;;;5029044;28;20116;-89
2024/03/31 13:19:06;;;;;;;8.07;2.60;;;17.40;99.90;;;;;;5002857;28;20032;-89
2024/03/31 13:21:32;;;;;;;6.65;2.33;;;17.40;99.90;;;;;;5006149;28;20108;-89
2024/03/31 13:24:02;;;;;;;6.70;2.22;;;17.50;99.90;;;;;;4999446;28;20033;-87
2024/03/31 13:26:36;;;;;;;8.18;2.40;;;17.50;99.90;;;;;;4998729;28;20014;-88
2024/03/31 13:29:04;;;;;;;5.43;1.90;;;17.50;99.90;;;;;;5000262;28;20026;-87
2024/03/31 13:31:33;;;;;;;4.28;2.00;;;17.50;99.90;;;;;;5000598;28;20040;-89
2024/03/31 13:34:02;;;;;;;5.13;1.83;;;17.60;99.90;;;;;;5019255;28;20053;-88
2024/03/31 13:36:28;;;;;;;4.10;1.85;;;17.70;99.90;;;;;;5038592;28;20021;-87
2024/03/31 13:38:56;;;;;;;6.38;2.13;;;17.60;99.90;;;;;;5021769;28;20010;-88
2024/03/31 13:41:24;;;;;;;6.03;2.25;;;17.70;99.90;;;;;;5019460;28;20073;-87
2024/03/31 13:43:52;;;;;;;7.82;2.03;;;17.70;99.90;;;;;;4977387;28;20525;-86
2024/03/31 13:46:18;;;;;;;11.18;2.53;;;17.70;99.90;;;;;;5004367;28;20060;-87
2024/03/31 13:48:46;;;;;;;8.52;2.00;;;17.70;99.90;;;;;;5016039;28;20022;-86
2024/03/31 13:51:21;;;;;;;5.20;2.20;;;17.70;99.90;;;;;;4983197;28;20046;-84
2024/03/31 13:53:47;;;;;;;7.15;2.40;;;17.70;99.90;;;;;;4998665;28;20022;-86
2024/03/31 13:56:12;;;;;;;6.05;2.10;;;17.70;99.90;;;;;;4999586;28;20029;-86
2024/03/31 13:58:40;;;;;;;6.00;2.10;;;17.70;99.90;;;;;;4999580;28;20021;-86
2024/03/31 14:01:09;;;;;;;5.70;2.13;;;17.60;99.90;;;;;;5002222;28;20018;-86
2024/03/31 14:03:34;;;;;;;3.20;1.75;;;17.60;99.90;;;;;;4989648;28;20050;-84
2024/03/31 14:06:23;;;;;;;6.63;2.13;;;17.60;99.90;;;;;;5019004;28;20037;-85
2024/03/31 14:08:49;;;;;;;6.95;2.28;;;17.60;99.90;;;;;;4999585;28;20034;-85